Time;durP1;ratioP1;P1;durP2;ratioP2;P2;SDS_P1;SDS_P2;PMS_P1;PMS_P2;Temp;Humidity;BMP_temperature;BMP_pressure;BME280_temperature;BME280_humidity;BME280_pressure;Samples;Min_cycle;Max_cycle;Signal;HPM_P1;HPM_P2
2023/06/10 00:01:59;;;;;;;10.38;5.30;;;16.80;99.90;;;;;;5063859;28;20024;-69
2023/06/10 00:04:27;;;;;;;11.65;5.45;;;16.70;99.90;;;;;;5063485;28;20027;-70
2023/06/10 00:06:53;;;;;;;11.25;5.15;;;16.70;99.90;;;;;;5064278;28;20032;-69
2023/06/10 00:09:21;;;;;;;13.05;5.57;;;16.70;99.90;;;;;;5064253;28;20075;-69
2023/06/10 00:11:47;;;;;;;15.00;5.70;;;16.60;99.90;;;;;;5064396;28;20103;-71
2023/06/10 00:14:13;;;;;;;14.32;5.93;;;16.50;99.90;;;;;;5064459;28;20429;-69
2023/06/10 00:16:39;;;;;;;13.27;5.35;;;16.40;99.90;;;;;;5063722;28;20025;-71
2023/06/10 00:19:05;;;;;;;14.05;5.72;;;16.40;99.90;;;;;;5064064;28;20025;-69
2023/06/10 00:21:40;;;;;;;15.43;6.05;;;16.50;99.90;;;;;;5061643;28;20033;-69
2023/06/10 00:24:07;;;;;;;12.57;5.60;;;16.30;99.90;;;;;;5060469;28;20063;-70
2023/06/10 00:26:33;;;;;;;14.25;6.10;;;16.40;99.90;;;;;;5063838;28;20051;-70
2023/06/10 00:28:59;;;;;;;16.98;6.70;;;16.30;99.90;;;;;;5063608;28;20052;-69
2023/06/10 00:31:26;;;;;;;20.55;6.30;;;16.20;99.90;;;;;;5063515;28;20033;-70
2023/06/10 00:33:52;;;;;;;19.38;6.50;;;16.20;99.90;;;;;;5064022;28;20051;-70
2023/06/10 00:36:18;;;;;;;16.70;6.57;;;16.10;99.90;;;;;;5063078;28;20028;-71
2023/06/10 00:38:43;;;;;;;15.00;6.35;;;16.10;99.90;;;;;;5063278;28;20021;-71
2023/06/10 00:41:09;;;;;;;12.07;6.18;;;16.00;99.90;;;;;;5063688;28;20029;-69
2023/06/10 00:43:35;;;;;;;17.20;6.13;;;16.10;99.90;;;;;;5063410;28;20434;-70
2023/06/10 00:46:00;;;;;;;16.42;6.00;;;16.10;99.90;;;;;;5063483;28;20025;-68
2023/06/10 00:48:27;;;;;;;18.27;6.00;;;16.00;99.90;;;;;;5063506;28;20092;-70
2023/06/10 00:50:53;;;;;;;16.98;6.55;;;16.00;99.90;;;;;;5062662;28;20037;-70
2023/06/10 00:53:20;;;;;;;19.33;6.93;;;16.00;99.90;;;;;;5063423;28;20025;-69
2023/06/10 00:55:46;;;;;;;19.15;6.70;;;15.90;99.90;;;;;;5062746;28;20043;-70
2023/06/10 00:58:12;;;;;;;19.90;7.35;;;15.90;99.90;;;;;;5062885;28;20035;-70
2023/06/10 01:00:38;;;;;;;20.38;6.63;;;15.80;99.90;;;;;;5063256;28;20037;-70
2023/06/10 01:03:10;;;;;;;21.70;7.05;;;15.80;99.90;;;;;;5062672;28;20467;-70
2023/06/10 01:05:36;;;;;;;17.15;6.68;;;15.90;99.90;;;;;;5063471;28;20036;-69
2023/06/10 01:08:25;;;;;;;21.83;6.85;;;15.80;99.90;;;;;;5060063;28;20024;-69
2023/06/10 01:10:55;;;;;;;22.30;7.20;;;15.70;99.90;;;;;;5061063;28;20037;-72
2023/06/10 01:13:23;;;;;;;15.65;7.47;;;15.70;99.90;;;;;;5062301;28;20068;-70
2023/06/10 01:15:51;;;;;;;17.02;7.50;;;15.70;99.90;;;;;;5062131;28;20025;-69
2023/06/10 01:18:17;;;;;;;15.77;7.15;;;15.70;99.90;;;;;;5062235;28;20025;-70
2023/06/10 01:20:44;;;;;;;21.77;8.02;;;15.60;99.90;;;;;;5063331;28;20029;-70
2023/06/10 01:23:10;;;;;;;22.85;8.18;;;15.60;99.90;;;;;;5060794;28;20135;-68
2023/06/10 01:25:40;;;;;;;21.55;7.60;;;15.60;99.90;;;;;;5061878;28;20024;-69
2023/06/10 01:28:15;;;;;;;19.58;7.90;;;15.60;99.90;;;;;;5061368;28;20029;-68
2023/06/10 01:31:09;;;;;;;20.85;7.60;;;15.50;99.90;;;;;;5062475;28;20033;-70
2023/06/10 01:33:39;;;;;;;23.13;8.48;;;15.50;99.90;;;;;;5061527;28;20033;-69
2023/06/10 01:36:05;;;;;;;23.77;8.38;;;15.50;99.90;;;;;;5060894;28;20009;-69
2023/06/10 01:38:36;;;;;;;19.05;7.70;;;15.40;99.90;;;;;;5061487;28;20043;-70
2023/06/10 01:41:03;;;;;;;18.45;7.80;;;15.40;99.90;;;;;;5061972;28;20029;-69
2023/06/10 01:43:32;;;;;;;21.48;8.27;;;15.30;99.90;;;;;;5062485;28;20032;-70
2023/06/10 01:45:57;;;;;;;21.90;8.25;;;15.30;99.90;;;;;;5061581;28;20025;-70
2023/06/10 01:48:23;;;;;;;21.67;7.78;;;15.30;99.90;;;;;;5061871;28;20105;-68
2023/06/10 01:50:48;;;;;;;21.98;8.52;;;15.30;99.90;;;;;;5061695;28;20048;-69
2023/06/10 01:53:14;;;;;;;21.52;8.63;;;15.20;99.90;;;;;;5062279;28;20037;-70
2023/06/10 01:55:40;;;;;;;20.15;8.75;;;15.20;99.90;;;;;;5062213;28;20017;-70
2023/06/10 01:58:05;;;;;;;26.55;8.65;;;15.20;99.90;;;;;;5061960;28;20070;-69
2023/06/10 02:00:31;;;;;;;21.77;8.10;;;15.20;99.90;;;;;;5061804;28;20079;-69
2023/06/10 02:02:56;;;;;;;21.52;8.48;;;15.20;99.90;;;;;;5062166;28;20363;-69
2023/06/10 02:05:22;;;;;;;25.00;8.60;;;15.20;99.90;;;;;;5061884;28;20013;-70
2023/06/10 02:07:48;;;;;;;21.67;8.68;;;15.20;99.90;;;;;;5062232;28;20021;-69
2023/06/10 02:10:13;;;;;;;20.95;8.77;;;15.20;99.90;;;;;;5062196;28;20026;-70
2023/06/10 02:12:39;;;;;;;22.00;8.80;;;15.10;99.90;;;;;;5059901;28;20147;-68
2023/06/10 02:15:05;;;;;;;20.67;8.45;;;15.10;99.90;;;;;;5061746;28;20036;-69
2023/06/10 02:17:30;;;;;;;17.73;7.63;;;15.00;99.90;;;;;;5060489;28;20149;-69
2023/06/10 02:19:56;;;;;;;23.30;8.98;;;15.00;99.90;;;;;;5059834;28;20076;-69
2023/06/10 02:22:23;;;;;;;18.90;8.02;;;15.00;99.90;;;;;;5061665;28;20107;-71
2023/06/10 02:24:49;;;;;;;20.73;8.50;;;15.00;99.90;;;;;;5061303;28;20478;-70
2023/06/10 02:27:16;;;;;;;19.65;8.50;;;14.90;99.90;;;;;;5061215;28;20048;-71
2023/06/10 02:29:41;;;;;;;20.45;9.02;;;14.90;99.90;;;;;;5061923;28;20025;-70
2023/06/10 02:32:15;;;;;;;20.75;9.10;;;14.90;99.90;;;;;;5061528;28;20398;-70
2023/06/10 02:34:42;;;;;;;21.23;8.73;;;14.90;99.90;;;;;;5061365;28;20031;-68
2023/06/10 02:37:08;;;;;;;25.83;9.43;;;14.80;99.90;;;;;;5060008;28;20067;-68
2023/06/10 02:39:33;;;;;;;16.20;8.70;;;14.80;99.90;;;;;;5061232;28;20052;-69
2023/06/10 02:41:59;;;;;;;19.65;8.90;;;14.80;99.90;;;;;;5061312;28;20029;-68
2023/06/10 02:44:25;;;;;;;20.77;8.63;;;14.70;99.90;;;;;;5061246;28;20485;-69
2023/06/10 02:46:50;;;;;;;15.85;8.90;;;14.70;99.90;;;;;;5059959;28;20043;-67
2023/06/10 02:49:16;;;;;;;17.83;8.93;;;14.70;99.90;;;;;;5061553;28;20044;-70
2023/06/10 02:51:42;;;;;;;20.25;9.20;;;14.60;99.90;;;;;;5059678;28;20044;-69
2023/06/10 02:54:08;;;;;;;19.98;9.43;;;14.60;99.90;;;;;;5060126;28;20103;-69
2023/06/10 02:56:33;;;;;;;16.38;8.93;;;14.60;99.90;;;;;;5061435;28;20028;-70
2023/06/10 02:59:00;;;;;;;19.48;9.20;;;14.50;99.90;;;;;;5059983;28;20021;-70
2023/06/10 03:01:26;;;;;;;18.10;9.02;;;14.50;99.90;;;;;;5061260;28;20104;-70
2023/06/10 03:03:52;;;;;;;19.98;9.52;;;14.50;99.90;;;;;;5061170;28;20137;-69
2023/06/10 03:06:18;;;;;;;19.65;8.70;;;14.50;99.90;;;;;;5061406;28;20025;-69
2023/06/10 03:08:45;;;;;;;21.80;8.98;;;14.40;99.90;;;;;;5061011;28;20026;-69
2023/06/10 03:11:11;;;;;;;20.60;8.98;;;14.40;99.90;;;;;;5061406;28;20486;-69
2023/06/10 03:13:39;;;;;;;20.38;8.93;;;14.50;99.90;;;;;;5059950;28;20071;-68
2023/06/10 03:16:05;;;;;;;27.08;10.25;;;14.40;99.90;;;;;;5060650;28;20506;-68
2023/06/10 03:18:30;;;;;;;20.55;9.13;;;14.40;99.90;;;;;;5061186;28;20036;-70
2023/06/10 03:20:56;;;;;;;20.38;9.50;;;14.30;99.90;;;;;;5057592;28;20044;-69
2023/06/10 03:23:28;;;;;;;22.85;9.23;;;14.30;99.90;;;;;;5059855;28;20017;-69
2023/06/10 03:25:54;;;;;;;19.88;9.48;;;14.30;99.90;;;;;;5060607;28;20116;-70
2023/06/10 03:28:21;;;;;;;19.60;9.63;;;14.30;99.90;;;;;;5061111;28;20021;-70
2023/06/10 03:30:47;;;;;;;21.50;10.05;;;14.30;99.90;;;;;;5061033;28;20090;-72
2023/06/10 03:33:13;;;;;;;19.50;9.75;;;14.30;99.90;;;;;;5065064;28;20031;-69
2023/06/10 03:35:42;;;;;;;16.67;9.20;;;14.20;99.90;;;;;;5064474;28;20032;-70
2023/06/10 03:38:08;;;;;;;22.00;9.45;;;14.20;99.90;;;;;;5064218;28;20032;-69
2023/06/10 03:40:33;;;;;;;18.27;9.43;;;14.20;99.90;;;;;;5064455;28;20029;-69
2023/06/10 03:43:00;;;;;;;21.98;10.23;;;14.20;99.90;;;;;;5064291;28;20393;-69
2023/06/10 03:45:28;;;;;;;18.63;9.50;;;14.10;99.90;;;;;;5064318;28;20031;-71
2023/06/10 03:47:53;;;;;;;15.98;8.68;;;14.10;99.90;;;;;;5064475;28;20021;-71
2023/06/10 03:50:19;;;;;;;18.15;8.90;;;14.10;99.90;;;;;;5064244;28;20028;-71
2023/06/10 03:52:46;;;;;;;21.92;9.63;;;14.10;99.90;;;;;;5064535;28;20052;-69
2023/06/10 03:55:13;;;;;;;20.02;9.38;;;14.10;99.90;;;;;;5062097;28;20024;-69
2023/06/10 03:57:39;;;;;;;23.35;9.07;;;14.10;99.90;;;;;;5062637;28;20024;-68
2023/06/10 04:00:10;;;;;;;16.60;9.15;;;14.00;99.90;;;;;;5061218;28;20025;-68
2023/06/10 04:02:36;;;;;;;23.42;9.85;;;14.10;99.90;;;;;;5060647;28;20028;-71
2023/06/10 04:05:02;;;;;;;19.85;8.18;;;14.00;99.90;;;;;;5058728;28;20028;-69
2023/06/10 04:07:28;;;;;;;15.13;8.55;;;14.10;99.90;;;;;;5063131;28;20021;-68
2023/06/10 04:09:54;;;;;;;17.88;8.68;;;14.00;99.90;;;;;;5064528;28;20036;-67
2023/06/10 04:12:19;;;;;;;17.52;8.40;;;14.00;99.90;;;;;;5064176;28;20032;-70
2023/06/10 04:14:45;;;;;;;15.70;8.63;;;14.10;99.90;;;;;;5064428;28;20040;-69
2023/06/10 04:17:10;;;;;;;20.23;8.75;;;14.10;99.90;;;;;;5062829;28;20013;-69
2023/06/10 04:19:36;;;;;;;18.63;9.13;;;14.20;99.90;;;;;;5062684;28;20071;-68
2023/06/10 04:22:03;;;;;;;20.60;9.32;;;14.20;99.90;;;;;;5064294;28;20056;-68
2023/06/10 04:24:29;;;;;;;19.25;8.80;;;14.20;99.90;;;;;;5063212;28;20023;-68
2023/06/10 04:26:54;;;;;;;17.95;7.95;;;14.20;99.90;;;;;;5063745;28;20029;-68
2023/06/10 04:29:20;;;;;;;18.17;8.18;;;14.20;99.90;;;;;;5063807;28;20182;-69
2023/06/10 04:31:46;;;;;;;21.15;8.63;;;14.30;99.90;;;;;;5063704;28;20043;-69
2023/06/10 04:34:12;;;;;;;18.13;8.18;;;14.30;99.90;;;;;;5063768;28;20044;-68
2023/06/10 04:36:38;;;;;;;16.65;8.15;;;14.40;99.90;;;;;;5063395;28;20025;-69
2023/06/10 04:39:05;;;;;;;19.35;8.50;;;14.40;99.90;;;;;;5063686;28;20084;-68
2023/06/10 04:41:31;;;;;;;18.15;7.75;;;14.40;99.90;;;;;;5062957;28;20025;-68
2023/06/10 04:43:57;;;;;;;19.35;7.93;;;14.50;99.90;;;;;;5063524;28;20029;-67
2023/06/10 04:46:24;;;;;;;18.55;8.10;;;14.50;99.90;;;;;;5062237;28;20554;-69
2023/06/10 04:48:49;;;;;;;20.30;8.60;;;14.50;99.90;;;;;;5063092;28;20111;-68
2023/06/10 04:51:16;;;;;;;16.38;7.97;;;14.50;99.90;;;;;;5063475;28;20100;-70
2023/06/10 04:53:42;;;;;;;19.08;8.27;;;14.60;99.90;;;;;;5063067;28;20023;-68
2023/06/10 04:56:08;;;;;;;17.40;7.78;;;14.60;99.90;;;;;;5062836;28;20115;-68
2023/06/10 04:58:33;;;;;;;15.73;7.53;;;14.70;99.90;;;;;;5063488;28;20489;-69
2023/06/10 05:00:59;;;;;;;14.93;7.97;;;14.70;99.90;;;;;;5061891;28;20021;-69
2023/06/10 05:03:26;;;;;;;19.83;7.72;;;14.60;99.90;;;;;;5063418;28;20347;-68
2023/06/10 05:05:54;;;;;;;14.98;7.55;;;14.70;99.90;;;;;;5062182;28;20029;-71
2023/06/10 05:08:20;;;;;;;16.45;7.78;;;14.60;99.90;;;;;;5060587;28;20021;-68
2023/06/10 05:10:46;;;;;;;18.98;7.72;;;14.60;99.90;;;;;;5060744;28;20544;-69
2023/06/10 05:13:12;;;;;;;15.82;7.40;;;14.60;99.90;;;;;;5062759;28;20033;-67
2023/06/10 05:15:37;;;;;;;17.55;7.05;;;14.60;99.90;;;;;;5063084;28;20025;-69
2023/06/10 05:18:03;;;;;;;18.60;7.10;;;14.70;99.90;;;;;;5063040;28;20021;-68
2023/06/10 05:20:29;;;;;;;13.10;6.90;;;14.60;99.90;;;;;;5061214;28;20024;-68
2023/06/10 05:22:54;;;;;;;15.38;6.35;;;14.70;99.90;;;;;;5060926;28;20023;-70
2023/06/10 05:25:20;;;;;;;16.17;6.63;;;14.70;99.90;;;;;;5060768;28;20032;-69
2023/06/10 05:27:46;;;;;;;13.93;6.88;;;14.70;99.90;;;;;;5061771;28;20054;-68
2023/06/10 05:30:12;;;;;;;17.02;6.60;;;14.80;99.90;;;;;;5061933;28;20024;-68
2023/06/10 05:32:37;;;;;;;20.50;6.82;;;14.80;99.90;;;;;;5061343;28;20052;-66
2023/06/10 05:35:04;;;;;;;13.93;6.70;;;14.90;99.90;;;;;;5062511;28;20025;-69
2023/06/10 05:37:30;;;;;;;12.88;6.00;;;14.90;99.90;;;;;;5062558;28;20031;-68
2023/06/10 05:39:55;;;;;;;14.85;6.07;;;14.90;99.90;;;;;;5062712;28;20107;-66
2023/06/10 05:42:21;;;;;;;14.45;6.10;;;15.00;99.90;;;;;;5060905;28;20029;-69
2023/06/10 05:44:46;;;;;;;12.77;6.15;;;15.00;99.90;;;;;;5062894;28;20021;-69
2023/06/10 05:47:12;;;;;;;13.65;6.07;;;15.00;99.90;;;;;;5061155;28;20025;-68
2023/06/10 05:49:37;;;;;;;18.35;6.13;;;15.00;99.90;;;;;;5060618;28;20106;-69
2023/06/10 05:52:03;;;;;;;18.23;5.88;;;15.10;99.90;;;;;;5061155;28;20041;-68
2023/06/10 05:54:29;;;;;;;16.77;6.00;;;15.10;99.90;;;;;;5060780;28;20031;-67
2023/06/10 05:56:55;;;;;;;14.30;5.88;;;15.20;99.90;;;;;;5060490;28;20021;-67
2023/06/10 05:59:22;;;;;;;19.85;6.88;;;15.30;99.90;;;;;;5061020;28;20390;-69
2023/06/10 06:01:49;;;;;;;15.23;5.55;;;15.30;99.90;;;;;;5063897;28;20029;-68
2023/06/10 06:04:16;;;;;;;17.70;6.03;;;15.30;99.90;;;;;;5059934;28;20020;-69
2023/06/10 06:06:43;;;;;;;13.63;5.85;;;15.40;99.90;;;;;;5060640;28;20037;-68
2023/06/10 06:09:09;;;;;;;12.57;5.80;;;15.40;99.90;;;;;;5061268;28;20102;-68
2023/06/10 06:11:35;;;;;;;14.95;5.60;;;15.30;99.90;;;;;;5059619;28;20809;-68
2023/06/10 06:14:01;;;;;;;10.95;5.30;;;15.40;99.90;;;;;;5059832;28;20029;-67
2023/06/10 06:16:26;;;;;;;15.02;6.15;;;15.40;99.90;;;;;;5061453;28;20028;-67
2023/06/10 06:18:52;;;;;;;12.75;5.35;;;15.50;99.90;;;;;;5061338;28;20032;-69
2023/06/10 06:21:18;;;;;;;15.50;6.22;;;15.60;99.90;;;;;;5062187;28;20028;-71
2023/06/10 06:23:44;;;;;;;13.18;5.55;;;15.60;99.90;;;;;;5060780;28;20052;-68
2023/06/10 06:26:09;;;;;;;11.93;5.88;;;15.70;99.90;;;;;;5061308;28;20021;-70
2023/06/10 06:28:35;;;;;;;11.85;5.90;;;15.70;99.90;;;;;;5058295;28;20017;-69
2023/06/10 06:31:01;;;;;;;14.43;5.88;;;15.70;99.90;;;;;;5059676;28;20045;-69
2023/06/10 06:33:29;;;;;;;19.65;5.88;;;15.70;99.90;;;;;;5059560;28;20092;-71
2023/06/10 06:35:55;;;;;;;14.35;5.43;;;15.70;99.90;;;;;;5061422;28;20080;-68
2023/06/10 06:38:21;;;;;;;17.50;5.60;;;15.80;99.90;;;;;;5060756;28;20087;-70
2023/06/10 06:40:47;;;;;;;24.10;6.35;;;15.90;99.90;;;;;;5061893;28;20025;-69
2023/06/10 06:43:12;;;;;;;12.30;5.72;;;15.90;99.90;;;;;;5060147;28;20031;-68
2023/06/10 06:45:38;;;;;;;10.10;5.00;;;16.00;99.90;;;;;;5059316;28;20471;-70
2023/06/10 06:48:05;;;;;;;15.77;5.85;;;16.10;99.90;;;;;;5061512;28;20025;-69
2023/06/10 06:50:30;;;;;;;15.65;5.43;;;16.20;99.90;;;;;;5060601;28;20028;-69
2023/06/10 06:52:56;;;;;;;12.50;5.65;;;16.20;99.90;;;;;;5060560;28;20049;-70
2023/06/10 06:55:21;;;;;;;11.57;5.63;;;16.40;99.90;;;;;;5058722;28;20497;-71
2023/06/10 06:57:48;;;;;;;16.08;6.63;;;16.40;99.90;;;;;;5059155;28;20044;-69
2023/06/10 07:00:14;;;;;;;11.70;5.45;;;16.30;99.90;;;;;;5057916;28;20577;-68
2023/06/10 07:02:40;;;;;;;12.48;6.25;;;16.30;99.90;;;;;;5056160;28;20080;-69
2023/06/10 07:05:06;;;;;;;14.80;5.47;;;16.30;99.90;;;;;;5058837;28;20052;-68
2023/06/10 07:07:31;;;;;;;18.83;5.85;;;16.30;99.90;;;;;;5062022;28;20025;-69
2023/06/10 07:09:57;;;;;;;14.63;5.68;;;16.30;99.90;;;;;;5065559;28;20027;-68
2023/06/10 07:12:23;;;;;;;16.27;5.63;;;16.30;99.90;;;;;;5061198;28;20052;-69
2023/06/10 07:14:50;;;;;;;11.18;5.07;;;16.40;99.90;;;;;;5064805;28;20021;-68
2023/06/10 07:17:17;;;;;;;12.52;5.63;;;16.50;99.90;;;;;;5064152;28;20033;-69
2023/06/10 07:19:43;;;;;;;17.83;6.35;;;16.60;99.90;;;;;;5062256;28;20025;-68
2023/06/10 07:22:09;;;;;;;11.63;5.40;;;16.70;99.90;;;;;;5064521;28;20029;-69
2023/06/10 07:24:35;;;;;;;16.13;5.57;;;16.80;99.90;;;;;;5063631;28;20025;-69
2023/06/10 07:27:00;;;;;;;12.10;5.55;;;16.80;99.90;;;;;;5064966;28;20052;-70
2023/06/10 07:29:26;;;;;;;17.08;5.63;;;16.80;99.90;;;;;;5065076;28;20017;-69
2023/06/10 07:31:53;;;;;;;14.02;5.40;;;16.90;99.90;;;;;;5063087;28;20033;-70
2023/06/10 07:34:18;;;;;;;14.68;6.03;;;17.00;99.90;;;;;;5064630;28;20489;-70
2023/06/10 07:36:44;;;;;;;14.30;5.20;;;17.10;99.90;;;;;;5061398;28;20040;-68
2023/06/10 07:39:10;;;;;;;10.48;5.60;;;17.20;99.90;;;;;;5060620;28;20025;-70
2023/06/10 07:41:35;;;;;;;13.93;5.43;;;17.20;99.90;;;;;;5063928;28;20025;-69
2023/06/10 07:44:02;;;;;;;14.52;5.65;;;17.40;99.90;;;;;;5058407;28;20029;-70
2023/06/10 07:46:28;;;;;;;17.48;6.35;;;17.50;99.90;;;;;;5062858;28;20017;-68
2023/06/10 07:48:54;;;;;;;15.15;5.85;;;17.50;99.90;;;;;;5062919;28;20023;-71
2023/06/10 07:51:21;;;;;;;9.05;5.40;;;17.60;99.90;;;;;;5064466;28;20048;-68
2023/06/10 07:53:47;;;;;;;13.68;7.38;;;17.60;99.90;;;;;;5063309;28;20025;-68
2023/06/10 07:56:13;;;;;;;17.10;7.80;;;17.70;99.90;;;;;;5063578;28;20048;-66
2023/06/10 07:58:38;;;;;;;14.95;6.55;;;17.90;99.90;;;;;;5059811;28;20017;-68
2023/06/10 08:01:04;;;;;;;17.58;7.38;;;18.00;99.90;;;;;;5061702;28;20519;-68
2023/06/10 08:03:30;;;;;;;16.38;7.15;;;18.10;99.90;;;;;;5059889;28;20028;-68
2023/06/10 08:05:56;;;;;;;16.23;6.15;;;18.10;99.90;;;;;;5060161;28;20030;-67
2023/06/10 08:08:21;;;;;;;14.52;6.55;;;18.10;99.90;;;;;;5063973;28;20037;-67
2023/06/10 08:10:48;;;;;;;14.75;6.85;;;18.20;99.90;;;;;;5062062;28;20078;-68
2023/06/10 08:13:14;;;;;;;15.80;6.70;;;18.30;99.90;;;;;;5061574;28;20108;-67
2023/06/10 08:15:39;;;;;;;12.85;6.57;;;18.40;99.90;;;;;;5057565;28;20547;-67
2023/06/10 08:18:05;;;;;;;13.15;6.07;;;18.50;99.90;;;;;;5060382;28;20025;-66
2023/06/10 08:20:32;;;;;;;15.88;6.93;;;18.60;99.90;;;;;;5062173;28;20083;-66
2023/06/10 08:22:57;;;;;;;15.93;6.90;;;18.70;99.90;;;;;;5061702;28;20021;-67
2023/06/10 08:25:23;;;;;;;15.13;7.28;;;18.80;99.90;;;;;;5060569;28;20466;-68
2023/06/10 08:27:50;;;;;;;16.02;6.85;;;18.80;99.90;;;;;;5061455;28;20025;-69
2023/06/10 08:30:18;;;;;;;16.52;7.18;;;18.90;99.90;;;;;;5060471;28;20068;-67
2023/06/10 08:32:43;;;;;;;16.90;7.18;;;19.00;99.90;;;;;;5061972;28;20029;-68
2023/06/10 08:35:09;;;;;;;15.48;7.32;;;19.00;99.90;;;;;;5062752;28;20035;-69
2023/06/10 08:37:34;;;;;;;17.10;7.80;;;19.00;99.90;;;;;;5060843;28;20021;-70
2023/06/10 08:40:01;;;;;;;15.02;6.85;;;19.20;99.90;;;;;;5060356;28;20032;-70
2023/06/10 08:42:45;;;;;;;18.23;7.70;;;19.30;99.90;;;;;;5062432;28;20048;-68
2023/06/10 08:45:18;;;;;;;16.92;6.78;;;19.30;99.90;;;;;;5059340;28;20037;-69
2023/06/10 08:47:50;;;;;;;16.15;7.22;;;19.40;99.90;;;;;;5060567;28;20156;-68
2023/06/10 08:50:16;;;;;;;14.48;7.03;;;19.50;99.90;;;;;;5061724;28;20402;-70
2023/06/10 08:52:44;;;;;;;15.23;7.47;;;19.60;99.90;;;;;;5060191;28;20059;-68
2023/06/10 08:55:26;;;;;;;15.05;7.75;;;19.70;99.90;;;;;;5058883;28;20100;-69
2023/06/10 08:57:52;;;;;;;15.82;6.97;;;19.70;99.90;;;;;;5062673;28;20040;-68
2023/06/10 09:00:18;;;;;;;19.83;6.93;;;19.80;99.90;;;;;;5062099;28;20669;-70
2023/06/10 09:02:44;;;;;;;14.18;6.65;;;19.90;99.90;;;;;;5060933;28;20032;-68
2023/06/10 09:05:11;;;;;;;19.17;6.80;;;20.00;99.90;;;;;;5061684;28;20066;-68
2023/06/10 09:07:37;;;;;;;13.02;5.85;;;20.20;99.90;;;;;;5060663;28;20105;-68
2023/06/10 09:10:06;;;;;;;13.57;6.25;;;20.30;99.90;;;;;;5062506;28;20036;-68
2023/06/10 09:12:37;;;;;;;16.25;6.13;;;20.50;99.90;;;;;;5061372;28;20040;-68
2023/06/10 09:15:03;;;;;;;14.68;6.38;;;20.70;99.90;;;;;;5060440;28;20051;-69
2023/06/10 09:17:33;;;;;;;18.38;5.80;;;20.90;99.90;;;;;;5061192;28;20048;-69
2023/06/10 09:20:00;;;;;;;14.00;5.50;;;21.00;99.90;;;;;;5060779;28;20025;-68
2023/06/10 09:22:26;;;;;;;12.70;5.40;;;21.20;99.90;;;;;;5059471;28;20934;-70
2023/06/10 09:25:03;;;;;;;11.05;5.05;;;21.30;99.90;;;;;;5059377;28;20036;-68
2023/06/10 09:27:30;;;;;;;10.88;5.10;;;21.40;99.90;;;;;;5060524;28;20436;-68
2023/06/10 09:29:57;;;;;;;17.17;5.45;;;21.50;99.90;;;;;;5060539;28;20021;-68
2023/06/10 09:32:24;;;;;;;11.02;5.00;;;21.60;99.90;;;;;;5059801;28;20394;-69
2023/06/10 09:34:53;;;;;;;14.52;5.10;;;21.70;99.90;;;;;;5061427;28;20079;-67
2023/06/10 09:37:24;;;;;;;10.43;5.03;;;21.70;99.90;;;;;;5060882;28;20075;-68
2023/06/10 09:40:11;;;;;;;10.00;4.97;;;21.80;99.90;;;;;;5061961;28;20052;-69
2023/06/10 09:42:39;;;;;;;15.45;5.60;;;21.90;99.90;;;;;;5059344;28;20033;-66
2023/06/10 09:45:06;;;;;;;12.65;4.70;;;22.00;99.90;;;;;;5060425;28;20029;-69
2023/06/10 09:47:31;;;;;;;10.75;4.95;;;22.10;99.90;;;;;;5058753;28;20037;-68
2023/06/10 09:50:04;;;;;;;12.93;5.20;;;22.20;99.90;;;;;;5078061;28;20430;-67
2023/06/10 09:52:29;;;;;;;12.65;4.90;;;22.30;99.90;;;;;;5073895;28;20088;-68
2023/06/10 09:55:01;;;;;;;12.65;4.97;;;22.40;99.90;;;;;;5070969;28;20159;-68
2023/06/10 09:57:32;;;;;;;15.13;5.20;;;22.50;99.90;;;;;;5086269;28;20036;-68
2023/06/10 09:59:57;;;;;;;10.80;5.10;;;22.50;99.90;;;;;;5078403;28;20059;-69
2023/06/10 10:02:23;;;;;;;13.32;4.85;;;22.70;99.90;;;;;;5074914;28;20028;-69
2023/06/10 10:04:49;;;;;;;11.15;4.78;;;22.70;99.90;;;;;;5076085;28;20040;-69
2023/06/10 10:07:14;;;;;;;12.40;4.60;;;22.80;99.90;;;;;;5076861;28;20051;-67
2023/06/10 10:09:41;;;;;;;8.20;3.97;;;22.90;99.90;;;;;;5077132;28;20052;-68
2023/06/10 10:12:11;;;;;;;9.02;4.13;;;22.90;99.90;;;;;;5077904;28;20056;-70
2023/06/10 10:14:37;;;;;;;7.72;3.95;;;23.00;99.90;;;;;;5076815;28;20081;-66
2023/06/10 10:17:07;;;;;;;9.07;3.97;;;23.10;99.90;;;;;;5075403;28;20040;-69
2023/06/10 10:19:43;;;;;;;9.50;4.07;;;23.20;99.90;;;;;;5076508;28;20023;-70
2023/06/10 10:22:14;;;;;;;9.43;3.67;;;23.30;99.90;;;;;;5077601;28;20025;-68
2023/06/10 10:25:01;;;;;;;7.60;3.78;;;23.30;99.90;;;;;;5077515;28;20028;-70
2023/06/10 10:27:32;;;;;;;12.10;4.13;;;23.40;99.90;;;;;;5075919;28;20052;-69
2023/06/10 10:29:59;;;;;;;10.65;4.07;;;23.60;99.90;;;;;;5057372;28;20074;-68
2023/06/10 10:32:32;;;;;;;7.75;3.72;;;23.60;99.90;;;;;;5056859;28;20047;-68
2023/06/10 10:35:08;;;;;;;8.25;3.65;;;23.70;99.90;;;;;;5056427;28;20017;-68
2023/06/10 10:37:35;;;;;;;10.48;3.60;;;23.80;99.90;;;;;;5057405;28;20032;-67
2023/06/10 10:40:02;;;;;;;11.27;4.05;;;23.90;99.90;;;;;;5057485;28;20589;-68
2023/06/10 10:42:29;;;;;;;8.30;3.40;;;24.00;99.90;;;;;;5056995;28;20032;-67
2023/06/10 10:44:56;;;;;;;11.50;3.85;;;24.10;99.90;;;;;;5056794;28;20032;-68
2023/06/10 10:47:22;;;;;;;8.52;3.45;;;24.20;99.90;;;;;;5057095;28;20025;-69
2023/06/10 10:49:51;;;;;;;9.75;3.38;;;24.20;99.90;;;;;;5057782;28;20057;-70
2023/06/10 10:52:17;;;;;;;7.60;3.38;;;24.30;99.90;;;;;;5054597;28;20029;-69
2023/06/10 10:54:46;;;;;;;9.15;3.28;;;24.50;99.90;;;;;;5055095;28;20029;-69
2023/06/10 10:57:23;;;;;;;5.93;3.10;;;24.50;99.90;;;;;;5055818;28;20021;-71
2023/06/10 10:59:49;;;;;;;8.00;3.50;;;24.70;99.90;;;;;;5053478;28;20036;-68
2023/06/10 11:02:20;;;;;;;8.73;3.60;;;24.70;99.90;;;;;;5041970;28;20116;-69
2023/06/10 11:04:49;;;;;;;6.93;2.95;;;24.70;99.90;;;;;;5044724;28;20032;-67
2023/06/10 11:07:23;;;;;;;9.13;3.28;;;24.90;99.90;;;;;;5042080;28;20037;-69
2023/06/10 11:10:09;;;;;;;6.53;3.33;;;25.00;99.90;;;;;;5042943;28;20040;-70
2023/06/10 11:12:53;;;;;;;7.65;3.33;;;25.10;99.90;;;;;;5043693;28;20087;-70
2023/06/10 11:15:29;;;;;;;9.82;3.00;;;25.20;99.90;;;;;;5044162;28;20029;-69
2023/06/10 11:18:10;;;;;;;6.78;2.90;;;25.40;99.90;;;;;;5040888;28;20040;-71
2023/06/10 11:20:50;;;;;;;9.00;2.92;;;25.50;99.90;;;;;;5043162;28;20042;-70
2023/06/10 11:23:28;;;;;;;8.13;3.20;;;25.60;99.90;;;;;;5043830;28;21400;-68
2023/06/10 11:26:10;;;;;;;7.20;3.22;;;25.60;99.90;;;;;;5042594;28;20540;-69
2023/06/10 11:28:36;;;;;;;11.07;3.10;;;25.70;99.90;;;;;;5042272;28;20459;-67
2023/06/10 11:31:02;;;;;;;9.35;3.15;;;25.80;99.90;;;;;;5042184;28;20085;-69
2023/06/10 11:33:28;;;;;;;7.63;2.85;;;25.90;99.90;;;;;;5043119;28;20033;-68
2023/06/10 11:35:55;;;;;;;7.00;2.78;;;26.00;99.90;;;;;;5042112;28;20112;-69
2023/06/10 11:38:21;;;;;;;9.07;3.10;;;26.10;99.90;;;;;;5043405;28;20529;-69
2023/06/10 11:40:50;;;;;;;6.65;2.90;;;26.20;99.90;;;;;;5044164;28;20100;-69
2023/06/10 11:43:17;;;;;;;10.23;3.10;;;26.30;99.90;;;;;;5040038;28;20853;-70
2023/06/10 11:45:43;;;;;;;7.72;2.70;;;26.30;99.90;;;;;;5039457;28;20418;-70
2023/06/10 11:48:10;;;;;;;7.13;2.67;;;26.50;99.90;;;;;;5041028;28;20084;-70
2023/06/10 11:50:36;;;;;;;6.55;2.90;;;26.60;99.90;;;;;;5042765;28;20089;-68
2023/06/10 11:53:02;;;;;;;6.32;2.67;;;26.60;99.90;;;;;;5041798;28;20040;-69
2023/06/10 11:55:47;;;;;;;5.10;2.60;;;26.80;99.90;;;;;;5043034;28;20666;-69
2023/06/10 11:58:20;;;;;;;8.05;3.08;;;26.90;99.90;;;;;;5043149;28;20115;-69
2023/06/10 12:00:57;;;;;;;7.47;3.10;;;27.00;99.90;;;;;;5043475;28;20026;-70
2023/06/10 12:03:23;;;;;;;5.68;2.50;;;27.00;99.90;;;;;;5042377;28;20083;-69
2023/06/10 12:06:03;;;;;;;5.45;2.90;;;27.00;99.90;;;;;;5040301;28;20029;-69
2023/06/10 12:08:29;;;;;;;7.13;2.75;;;27.00;99.90;;;;;;5041857;28;20037;-71
2023/06/10 12:10:56;;;;;;;11.02;3.53;;;27.10;99.90;;;;;;5042960;28;20026;-70
2023/06/10 12:13:23;;;;;;;5.45;2.53;;;27.20;99.90;;;;;;5042098;28;21026;-70
2023/06/10 12:15:50;;;;;;;5.28;2.60;;;27.40;99.90;;;;;;5037247;28;20030;-71
2023/06/10 12:18:19;;;;;;;5.07;2.65;;;27.50;99.90;;;;;;5042545;28;20057;-68
2023/06/10 12:20:46;;;;;;;5.75;3.00;;;27.60;99.90;;;;;;5042690;28;20026;-68
2023/06/10 12:23:12;;;;;;;7.13;2.78;;;27.70;99.90;;;;;;5042403;28;20021;-68
2023/06/10 12:25:38;;;;;;;9.70;3.10;;;27.80;99.90;;;;;;5041207;28;20093;-68
2023/06/10 12:28:04;;;;;;;4.82;2.80;;;27.80;99.90;;;;;;5041644;28;20087;-70
2023/06/10 12:30:30;;;;;;;9.43;3.10;;;27.80;99.90;;;;;;5041663;28;20021;-68
2023/06/10 12:32:56;;;;;;;7.05;3.10;;;27.90;99.90;;;;;;5042211;28;20013;-68
2023/06/10 12:35:26;;;;;;;5.30;2.20;;;27.90;99.90;;;;;;5041905;28;20056;-70
2023/06/10 12:37:57;;;;;;;7.90;3.10;;;28.00;99.90;;;;;;5040828;28;20021;-70
2023/06/10 12:40:34;;;;;;;6.90;2.75;;;28.00;99.90;;;;;;5042712;28;20077;-71